Time;durP1;ratioP1;P1;durP2;ratioP2;P2;SDS_P1;SDS_P2;PMS_P1;PMS_P2;Temp;Humidity;BMP_temperature;BMP_pressure;BME280_temperature;BME280_humidity;BME280_pressure;Samples;Min_cycle;Max_cycle;Signal;HPM_P1;HPM_P2
2022/04/07 00:00:35;;;;;;;17.65;7.40;;;9.90;85.60;;;;;;5051719;28;20037;-70
2022/04/07 00:03:00;;;;;;;15.23;6.80;;;9.80;85.50;;;;;;5050002;28;20045;-70
2022/04/07 00:05:26;;;;;;;12.52;6.75;;;9.70;85.50;;;;;;5051146;28;20036;-69
2022/04/07 00:07:52;;;;;;;16.30;7.45;;;9.70;85.60;;;;;;5051290;28;20501;-70
2022/04/07 00:10:18;;;;;;;21.23;7.40;;;9.80;85.50;;;;;;5052119;28;20128;-69
2022/04/07 00:12:43;;;;;;;21.60;8.20;;;9.70;85.70;;;;;;5050971;28;20044;-69
2022/04/07 00:15:11;;;;;;;19.08;8.68;;;9.70;85.90;;;;;;5051273;28;20049;-68
2022/04/07 00:17:37;;;;;;;24.83;8.77;;;9.70;86.10;;;;;;5050277;28;20168;-70
2022/04/07 00:20:04;;;;;;;22.20;9.60;;;9.70;86.40;;;;;;5051315;28;20044;-69
2022/04/07 00:22:30;;;;;;;23.38;8.75;;;9.60;86.50;;;;;;5051513;28;20053;-69
2022/04/07 00:24:56;;;;;;;20.77;9.07;;;9.70;86.20;;;;;;5051095;28;20037;-69
2022/04/07 00:27:21;;;;;;;23.77;8.25;;;9.70;86.30;;;;;;5049948;28;20036;-69
2022/04/07 00:29:47;;;;;;;21.30;9.23;;;9.70;86.40;;;;;;5049896;28;20122;-69
2022/04/07 00:32:13;;;;;;;22.48;9.48;;;9.60;86.50;;;;;;5050066;28;20048;-69
2022/04/07 00:34:39;;;;;;;29.90;8.50;;;9.70;86.60;;;;;;5048462;28;20053;-70
2022/04/07 00:37:05;;;;;;;20.05;8.07;;;9.70;86.40;;;;;;5049770;28;20041;-69
2022/04/07 00:39:31;;;;;;;20.65;9.77;;;9.70;86.50;;;;;;5050213;28;20128;-70
2022/04/07 00:41:56;;;;;;;25.67;9.07;;;9.70;86.50;;;;;;5049736;28;20132;-69
2022/04/07 00:44:22;;;;;;;28.05;11.45;;;9.80;86.30;;;;;;5049579;28;20040;-69
2022/04/07 00:46:48;;;;;;;30.65;10.52;;;9.70;86.30;;;;;;5049267;28;20512;-69
2022/04/07 00:49:14;;;;;;;29.35;11.60;;;9.70;86.60;;;;;;5049839;28;20037;-69
2022/04/07 00:51:43;;;;;;;31.02;10.23;;;9.70;86.80;;;;;;5049412;28;20049;-70
2022/04/07 00:54:10;;;;;;;32.22;10.70;;;9.60;87.50;;;;;;5049622;28;20504;-70
2022/04/07 00:56:36;;;;;;;29.73;10.30;;;9.60;88.20;;;;;;5049663;28;20044;-69
2022/04/07 00:59:04;;;;;;;32.50;11.10;;;9.50;88.20;;;;;;5049909;28;20045;-69
2022/04/07 01:01:30;;;;;;;29.40;10.10;;;9.50;88.20;;;;;;5050134;28;20037;-70
2022/04/07 01:03:58;;;;;;;26.58;10.10;;;9.50;88.40;;;;;;5050375;28;20048;-71
2022/04/07 01:06:24;;;;;;;22.05;11.07;;;9.50;88.20;;;;;;5047995;28;20056;-69
2022/04/07 01:08:50;;;;;;;34.08;12.02;;;9.50;88.40;;;;;;5049217;28;20172;-69
2022/04/07 01:11:16;;;;;;;26.15;10.88;;;9.50;88.20;;;;;;5049972;28;20071;-69
2022/04/07 01:13:50;;;;;;;27.33;10.98;;;9.50;88.50;;;;;;5049279;28;20102;-68
2022/04/07 01:16:17;;;;;;;31.73;10.45;;;9.60;88.50;;;;;;5049878;28;20067;-69
2022/04/07 01:18:44;;;;;;;34.40;10.75;;;9.50;88.80;;;;;;5050390;28;20637;-69
2022/04/07 01:21:11;;;;;;;23.83;9.88;;;9.40;88.80;;;;;;5049998;28;20052;-69
2022/04/07 01:23:38;;;;;;;30.77;11.18;;;9.40;88.70;;;;;;5047830;28;20056;-69
2022/04/07 01:26:05;;;;;;;29.92;10.20;;;9.50;88.40;;;;;;5049426;28;20037;-69
2022/04/07 01:28:32;;;;;;;38.47;12.05;;;9.40;88.50;;;;;;5049466;28;20977;-69
2022/04/07 01:30:58;;;;;;;38.40;11.73;;;9.50;88.20;;;;;;5050010;28;20163;-69
2022/04/07 01:33:24;;;;;;;33.50;12.07;;;9.40;88.00;;;;;;5049880;28;20116;-69
2022/04/07 01:35:50;;;;;;;33.05;12.13;;;9.50;88.10;;;;;;5048016;28;20044;-69
2022/04/07 01:38:18;;;;;;;29.95;11.02;;;9.50;87.90;;;;;;5046829;28;20099;-69
2022/04/07 01:40:45;;;;;;;25.90;9.55;;;9.50;87.40;;;;;;5046386;28;20049;-69
2022/04/07 01:43:12;;;;;;;32.50;11.10;;;9.50;87.30;;;;;;5046566;28;20061;-69
2022/04/07 01:45:39;;;;;;;30.95;13.05;;;9.60;87.30;;;;;;5048684;28;20372;-69
2022/04/07 01:48:07;;;;;;;40.60;10.90;;;9.60;87.10;;;;;;5048696;28;20124;-69
2022/04/07 01:50:34;;;;;;;36.10;12.77;;;9.50;87.00;;;;;;5048335;28;20052;-69
2022/04/07 01:53:01;;;;;;;27.52;10.60;;;9.50;86.90;;;;;;5046776;28;20128;-69
2022/04/07 01:55:27;;;;;;;42.08;12.05;;;9.60;87.10;;;;;;5048124;28;20037;-69
2022/04/07 01:57:53;;;;;;;34.95;11.38;;;9.50;87.00;;;;;;5048308;28;20422;-69
2022/04/07 02:00:19;;;;;;;29.98;10.95;;;9.50;87.10;;;;;;5051499;28;20084;-68
2022/04/07 02:02:45;;;;;;;31.95;10.80;;;9.50;87.10;;;;;;5050860;28;20072;-69
2022/04/07 02:05:12;;;;;;;38.63;13.15;;;9.50;87.10;;;;;;5053924;28;20559;-69
2022/04/07 02:07:40;;;;;;;27.38;10.50;;;9.50;87.10;;;;;;5035337;28;20412;-68
2022/04/07 02:10:09;;;;;;;29.95;11.75;;;9.50;87.10;;;;;;5053005;28;20127;-69
2022/04/07 02:12:36;;;;;;;42.90;11.43;;;9.50;87.10;;;;;;5053594;28;20060;-69
2022/04/07 02:15:03;;;;;;;34.10;11.20;;;9.50;87.10;;;;;;5052785;28;20394;-69
2022/04/07 02:17:29;;;;;;;40.45;11.27;;;9.50;87.20;;;;;;5053793;28;20379;-69
2022/04/07 02:19:57;;;;;;;33.80;10.25;;;9.50;87.40;;;;;;5052000;28;20048;-69
2022/04/07 02:22:22;;;;;;;35.83;9.93;;;9.50;87.40;;;;;;5053533;28;20440;-69
2022/04/07 02:24:49;;;;;;;31.52;9.43;;;9.40;87.20;;;;;;5053172;28;20041;-69
2022/04/07 02:27:15;;;;;;;25.23;10.98;;;9.50;87.30;;;;;;5053292;28;20045;-69
2022/04/07 02:29:44;;;;;;;35.95;13.02;;;9.50;87.10;;;;;;5053526;28;20072;-68
2022/04/07 02:32:13;;;;;;;32.95;9.48;;;9.50;87.00;;;;;;5053313;28;20055;-69
2022/04/07 02:34:43;;;;;;;38.22;11.50;;;9.50;86.90;;;;;;5053012;28;20033;-69
2022/04/07 02:37:09;;;;;;;26.40;8.18;;;9.60;86.80;;;;;;5033516;28;20379;-69
2022/04/07 02:39:35;;;;;;;28.98;9.07;;;9.60;86.50;;;;;;5048249;28;20132;-68
2022/04/07 02:42:01;;;;;;;22.42;8.07;;;9.60;86.40;;;;;;5032788;28;20128;-69
2022/04/07 02:44:26;;;;;;;26.70;10.25;;;9.60;86.50;;;;;;5032835;28;20554;-69
2022/04/07 02:46:52;;;;;;;30.10;8.85;;;9.60;86.40;;;;;;5032760;28;20040;-69
2022/04/07 02:49:17;;;;;;;27.27;10.45;;;9.60;86.50;;;;;;5031893;28;20077;-69
2022/04/07 02:51:44;;;;;;;28.17;8.90;;;9.60;86.40;;;;;;5015540;28;20051;-69
2022/04/07 02:54:10;;;;;;;25.77;8.80;;;9.70;86.20;;;;;;5038951;28;20049;-69
2022/04/07 02:56:35;;;;;;;27.90;10.10;;;9.60;86.10;;;;;;5052144;28;20036;-69
2022/04/07 02:59:03;;;;;;;22.90;8.85;;;9.60;86.30;;;;;;5052452;28;20037;-69
2022/04/07 03:01:30;;;;;;;28.38;10.35;;;9.60;85.90;;;;;;5052572;28;20569;-69
2022/04/07 03:03:56;;;;;;;33.13;9.60;;;9.60;86.00;;;;;;5052986;28;20066;-69
2022/04/07 03:06:25;;;;;;;29.17;10.35;;;9.60;86.00;;;;;;5050765;28;20045;-69
2022/04/07 03:08:50;;;;;;;25.15;10.10;;;9.70;86.00;;;;;;5051689;28;20056;-69
2022/04/07 03:11:17;;;;;;;33.13;11.10;;;9.70;85.90;;;;;;5052423;28;20069;-69
2022/04/07 03:13:43;;;;;;;30.25;9.73;;;9.70;85.50;;;;;;5051534;28;20040;-69
2022/04/07 03:16:08;;;;;;;27.23;10.80;;;9.70;85.70;;;;;;5052152;28;20128;-69
2022/04/07 03:18:35;;;;;;;31.23;10.65;;;9.60;85.70;;;;;;5051811;28;20087;-69
2022/04/07 03:21:01;;;;;;;32.75;9.45;;;9.70;85.00;;;;;;5050822;28;20083;-69
2022/04/07 03:23:27;;;;;;;31.50;9.35;;;9.80;84.50;;;;;;5052130;28;20045;-69
2022/04/07 03:25:53;;;;;;;27.02;9.60;;;9.80;84.10;;;;;;5051715;28;20037;-69
2022/04/07 03:28:18;;;;;;;34.10;10.10;;;9.80;84.20;;;;;;5052064;28;20132;-67
2022/04/07 03:30:44;;;;;;;32.15;9.43;;;9.70;84.20;;;;;;5061847;28;20051;-69
2022/04/07 03:33:10;;;;;;;30.60;9.25;;;9.70;83.70;;;;;;5071806;28;20040;-69
2022/04/07 03:35:39;;;;;;;36.67;12.55;;;9.70;83.90;;;;;;5071850;28;20045;-69
2022/04/07 03:38:06;;;;;;;36.88;9.02;;;9.70;83.80;;;;;;5071986;28;20044;-69
2022/04/07 03:40:34;;;;;;;38.55;10.98;;;9.70;83.90;;;;;;5071924;28;20056;-69
2022/04/07 03:43:00;;;;;;;34.05;9.20;;;9.80;84.10;;;;;;5071464;28;20055;-69
2022/04/07 03:45:26;;;;;;;36.25;11.13;;;9.80;83.90;;;;;;5068181;28;20037;-69
2022/04/07 03:47:51;;;;;;;34.97;10.40;;;9.70;84.00;;;;;;5030523;28;20049;-69
2022/04/07 03:50:17;;;;;;;45.05;10.13;;;9.70;84.30;;;;;;5031454;28;20037;-69
2022/04/07 03:52:43;;;;;;;41.38;11.20;;;9.70;84.20;;;;;;5031448;28;20052;-69
2022/04/07 03:55:09;;;;;;;39.38;10.68;;;9.70;84.50;;;;;;5031879;28;20056;-69
2022/04/07 03:57:35;;;;;;;34.88;9.77;;;9.70;85.00;;;;;;5032019;28;20041;-69
2022/04/07 04:00:01;;;;;;;37.47;11.38;;;9.60;85.20;;;;;;5031993;28;20505;-70
2022/04/07 04:02:27;;;;;;;35.67;8.98;;;9.60;85.70;;;;;;5031350;28;20524;-69
2022/04/07 04:04:53;;;;;;;45.00;12.18;;;9.60;85.90;;;;;;5031525;28;20045;-69
2022/04/07 04:07:18;;;;;;;40.10;13.05;;;9.60;86.20;;;;;;5031837;28;20053;-69
2022/04/07 04:09:45;;;;;;;49.80;11.75;;;9.50;86.40;;;;;;5031181;28;20111;-69
2022/04/07 04:12:11;;;;;;;45.88;11.65;;;9.50;86.70;;;;;;5029885;28;20041;-69
2022/04/07 04:14:36;;;;;;;41.47;12.05;;;9.40;87.10;;;;;;5029736;28;20103;-69
2022/04/07 04:17:02;;;;;;;58.75;12.77;;;9.40;87.10;;;;;;5047367;28;20049;-69
2022/04/07 04:19:28;;;;;;;46.25;11.35;;;9.30;87.40;;;;;;5051239;28;20095;-69
2022/04/07 04:21:53;;;;;;;47.45;11.77;;;9.30;87.50;;;;;;5050334;28;20481;-69
2022/04/07 04:24:19;;;;;;;45.00;11.05;;;9.30;87.40;;;;;;5051103;28;20045;-69
2022/04/07 04:26:44;;;;;;;48.03;11.18;;;9.30;87.50;;;;;;5050076;28;20573;-68
2022/04/07 04:29:10;;;;;;;47.63;11.48;;;9.30;87.60;;;;;;5050989;28;20033;-68
2022/04/07 04:31:36;;;;;;;42.92;13.57;;;9.40;87.40;;;;;;5067283;28;20042;-69
2022/04/07 04:34:01;;;;;;;42.67;12.10;;;9.30;87.60;;;;;;5049585;28;20052;-68
2022/04/07 04:36:28;;;;;;;49.17;13.40;;;9.30;87.60;;;;;;5047201;28;20094;-68
2022/04/07 04:38:54;;;;;;;38.55;10.82;;;9.30;87.70;;;;;;5044074;28;20033;-69
2022/04/07 04:41:19;;;;;;;37.53;10.93;;;9.40;87.70;;;;;;5050949;28;20510;-69
2022/04/07 04:43:45;;;;;;;48.47;13.00;;;9.30;87.90;;;;;;5047792;28;20451;-69
2022/04/07 04:46:12;;;;;;;38.40;10.35;;;9.50;87.90;;;;;;5048228;28;20033;-69
2022/04/07 04:48:38;;;;;;;44.08;10.82;;;9.40;87.80;;;;;;5048814;28;20105;-69
2022/04/07 04:51:04;;;;;;;36.33;10.10;;;9.30;88.00;;;;;;5042993;28;20041;-68
2022/04/07 04:53:30;;;;;;;30.85;10.15;;;9.30;88.10;;;;;;5050158;28;20052;-69
2022/04/07 04:55:56;;;;;;;18.70;7.05;;;9.30;88.10;;;;;;5051309;28;20057;-69
2022/04/07 04:58:22;;;;;;;12.55;6.57;;;9.20;86.40;;;;;;5050815;28;20037;-68
2022/04/07 05:00:48;;;;;;;18.45;7.43;;;8.90;85.20;;;;;;5050348;28;20048;-70
2022/04/07 05:03:14;;;;;;;21.30;6.63;;;8.70;85.30;;;;;;5049867;28;20045;-68
2022/04/07 05:05:40;;;;;;;14.75;5.40;;;8.50;85.90;;;;;;5050414;28;20068;-68
2022/04/07 05:08:06;;;;;;;16.40;5.45;;;8.30;85.30;;;;;;5048363;28;20047;-68
2022/04/07 05:10:32;;;;;;;11.27;4.15;;;8.20;85.40;;;;;;5048771;28;20045;-68
2022/04/07 05:12:58;;;;;;;10.93;5.25;;;8.00;83.80;;;;;;5049689;28;20468;-68
2022/04/07 05:15:24;;;;;;;13.90;4.43;;;7.80;84.30;;;;;;5050084;28;20132;-69
2022/04/07 05:17:53;;;;;;;9.95;4.50;;;7.60;83.90;;;;;;5047835;28;20045;-69
2022/04/07 05:20:21;;;;;;;10.73;4.28;;;7.50;84.10;;;;;;5049243;28;20048;-69
2022/04/07 05:22:47;;;;;;;13.02;5.20;;;7.40;84.60;;;;;;5049809;28;20045;-68
2022/04/07 05:25:13;;;;;;;13.52;5.88;;;7.20;85.80;;;;;;5049765;28;20045;-69
2022/04/07 05:27:40;;;;;;;8.93;4.30;;;7.10;86.30;;;;;;5049421;28;20052;-69
2022/04/07 05:30:15;;;;;;;6.43;4.63;;;7.00;86.40;;;;;;5049274;28;20120;-68
2022/04/07 05:32:41;;;;;;;15.73;5.28;;;6.90;86.50;;;;;;5048325;28;20064;-68
2022/04/07 05:35:09;;;;;;;10.60;4.18;;;6.70;87.20;;;;;;5049578;28;20045;-68
2022/04/07 05:37:35;;;;;;;10.57;4.15;;;6.70;87.20;;;;;;5046281;28;20607;-68
2022/04/07 05:40:00;;;;;;;15.80;5.22;;;6.70;87.20;;;;;;5048092;28;20045;-68
2022/04/07 05:42:26;;;;;;;6.22;4.10;;;6.60;87.20;;;;;;5046741;28;20034;-69
2022/04/07 05:44:52;;;;;;;9.73;5.10;;;6.60;87.40;;;;;;5037656;28;20502;-69
2022/04/07 05:47:17;;;;;;;9.10;4.22;;;6.60;87.20;;;;;;5047703;28;20047;-69
2022/04/07 05:49:43;;;;;;;10.63;4.50;;;6.50;87.50;;;;;;5049877;28;20053;-69
2022/04/07 05:52:09;;;;;;;8.95;4.55;;;6.50;87.50;;;;;;5050221;28;20080;-68
2022/04/07 05:54:35;;;;;;;10.20;6.20;;;6.40;87.80;;;;;;5050104;28;20045;-68
2022/04/07 05:57:01;;;;;;;11.15;5.00;;;6.40;87.90;;;;;;5048785;28;20456;-67
2022/04/07 05:59:26;;;;;;;8.98;5.60;;;6.40;88.00;;;;;;5049754;28;20045;-67
2022/04/07 06:01:52;;;;;;;8.65;5.10;;;6.40;88.30;;;;;;5049141;28;20037;-67
2022/04/07 06:04:18;;;;;;;10.05;4.93;;;6.30;88.60;;;;;;5047928;28;20052;-68
2022/04/07 06:06:44;;;;;;;11.73;5.90;;;6.30;88.50;;;;;;5049111;28;20135;-68
2022/04/07 06:09:09;;;;;;;15.30;5.35;;;6.40;88.50;;;;;;5049037;28;20506;-67
2022/04/07 06:11:35;;;;;;;7.50;5.03;;;6.40;88.50;;;;;;5048831;28;20075;-67
2022/04/07 06:14:01;;;;;;;9.57;5.22;;;6.40;88.80;;;;;;5048785;28;20040;-68
2022/04/07 06:16:27;;;;;;;8.05;5.15;;;6.40;88.70;;;;;;5049375;28;20127;-68
2022/04/07 06:18:53;;;;;;;11.20;5.07;;;6.40;89.00;;;;;;5048987;28;20132;-65
2022/04/07 06:21:19;;;;;;;7.88;5.75;;;6.40;88.90;;;;;;5044186;28;20053;-67
2022/04/07 06:23:45;;;;;;;12.05;5.00;;;6.40;88.90;;;;;;5033599;28;20109;-66
2022/04/07 06:26:11;;;;;;;12.30;4.80;;;6.50;88.90;;;;;;5046949;28;20041;-66
2022/04/07 06:28:37;;;;;;;9.20;4.60;;;6.40;88.90;;;;;;5048600;28;20132;-67
2022/04/07 06:31:02;;;;;;;14.32;4.95;;;6.50;89.10;;;;;;5047708;28;20155;-66
2022/04/07 06:33:28;;;;;;;8.30;4.70;;;6.60;89.00;;;;;;5048243;28;20806;-66
2022/04/07 06:35:53;;;;;;;10.65;5.22;;;6.50;89.10;;;;;;5046621;28;20033;-67
2022/04/07 06:38:19;;;;;;;12.70;5.22;;;6.60;88.90;;;;;;5046332;28;20524;-68
2022/04/07 06:40:45;;;;;;;7.80;4.28;;;6.60;88.80;;;;;;5047366;28;20049;-67
2022/04/07 06:43:11;;;;;;;8.70;4.68;;;6.60;88.70;;;;;;5046660;28;20480;-68
2022/04/07 06:45:37;;;;;;;9.20;4.50;;;6.70;88.70;;;;;;5045480;28;20124;-66
2022/04/07 06:48:02;;;;;;;7.05;3.97;;;6.70;88.60;;;;;;5047525;28;20041;-65
2022/04/07 06:50:28;;;;;;;11.13;5.32;;;6.80;88.50;;;;;;5050299;28;20127;-66
2022/04/07 06:52:56;;;;;;;9.80;4.85;;;6.80;88.20;;;;;;5050878;28;20401;-65
2022/04/07 06:55:21;;;;;;;11.27;3.88;;;6.90;88.00;;;;;;5051287;28;20056;-65
2022/04/07 06:57:58;;;;;;;7.25;4.00;;;6.90;88.00;;;;;;5051194;28;20033;-65
2022/04/07 07:00:26;;;;;;;11.43;4.82;;;6.90;87.70;;;;;;5050346;28;20148;-65
2022/04/07 07:02:52;;;;;;;8.00;3.85;;;6.80;87.80;;;;;;5049623;28;20518;-66
2022/04/07 07:05:22;;;;;;;10.98;5.70;;;6.90;87.80;;;;;;5050696;28;20041;-66
2022/04/07 07:07:48;;;;;;;5.97;4.25;;;6.90;87.40;;;;;;5050461;28;20057;-66
2022/04/07 07:10:25;;;;;;;10.65;4.40;;;6.80;87.20;;;;;;5050676;28;20111;-66
2022/04/07 07:12:52;;;;;;;13.25;4.38;;;6.80;87.30;;;;;;5050212;28;20485;-65
2022/04/07 07:15:21;;;;;;;12.70;4.10;;;6.90;87.30;;;;;;5051658;28;20044;-67
2022/04/07 07:17:46;;;;;;;6.15;3.70;;;7.00;87.10;;;;;;5050198;28;20051;-66
2022/04/07 07:20:12;;;;;;;8.63;4.22;;;7.00;86.70;;;;;;5050444;28;20045;-66
2022/04/07 07:22:42;;;;;;;10.65;5.18;;;7.10;86.60;;;;;;5050624;28;20053;-66
2022/04/07 07:25:09;;;;;;;15.55;6.80;;;7.00;86.20;;;;;;5050764;28;20828;-66
2022/04/07 07:27:38;;;;;;;12.35;4.03;;;7.10;85.80;;;;;;5049368;28;20554;-66
2022/04/07 07:30:08;;;;;;;10.57;4.55;;;7.00;85.40;;;;;;5050087;28;20518;-66
2022/04/07 07:32:34;;;;;;;10.95;4.78;;;7.00;85.20;;;;;;5050157;28;20067;-67
2022/04/07 07:34:59;;;;;;;15.02;5.88;;;7.10;85.20;;;;;;5051012;28;20052;-67
2022/04/07 07:37:25;;;;;;;6.68;4.45;;;7.10;85.20;;;;;;5044592;28;20125;-68
2022/04/07 07:39:50;;;;;;;11.18;4.30;;;7.30;85.20;;;;;;5049787;28;20417;-67
2022/04/07 07:42:16;;;;;;;14.82;4.90;;;7.30;84.80;;;;;;5047891;28;20552;-67
2022/04/07 07:44:42;;;;;;;9.60;4.15;;;7.50;84.70;;;;;;5050825;28;20041;-66
2022/04/07 07:47:07;;;;;;;9.38;4.82;;;7.60;84.80;;;;;;5049612;28;20037;-64
2022/04/07 07:49:33;;;;;;;9.57;4.20;;;7.60;84.90;;;;;;5050312;28;20464;-65
2022/04/07 07:51:58;;;;;;;9.40;4.15;;;7.70;84.70;;;;;;5048577;28;20417;-64
2022/04/07 07:54:24;;;;;;;7.55;4.13;;;7.80;84.40;;;;;;5037232;28;20064;-68
2022/04/07 07:56:50;;;;;;;6.97;3.55;;;7.90;84.30;;;;;;5047287;28;20041;-68
2022/04/07 07:59:20;;;;;;;8.85;3.75;;;8.00;83.70;;;;;;5049584;28;20478;-67
2022/04/07 08:01:48;;;;;;;9.70;4.30;;;8.00;83.70;;;;;;5048585;28;20041;-66
2022/04/07 08:04:15;;;;;;;14.23;3.72;;;8.10;83.90;;;;;;5049324;28;20468;-68
2022/04/07 08:06:41;;;;;;;8.52;3.55;;;8.30;83.70;;;;;;5048707;28;20045;-66
2022/04/07 08:09:08;;;;;;;10.93;5.55;;;8.40;83.00;;;;;;5049579;28;20044;-65
2022/04/07 08:11:34;;;;;;;6.13;3.65;;;8.60;82.60;;;;;;5049115;28;20053;-66
2022/04/07 08:13:59;;;;;;;14.93;4.18;;;8.60;82.50;;;;;;5049057;28;20048;-66
2022/04/07 08:16:29;;;;;;;15.82;4.40;;;8.70;81.80;;;;;;5049139;28;20469;-66
2022/04/07 08:18:55;;;;;;;12.35;3.88;;;8.70;81.80;;;;;;5049418;28;20049;-65
2022/04/07 08:21:20;;;;;;;12.57;4.30;;;8.70;81.90;;;;;;5049825;28;20095;-66
2022/04/07 08:23:46;;;;;;;10.45;4.50;;;8.70;82.30;;;;;;5049017;28;20052;-66
2022/04/07 08:26:12;;;;;;;7.70;4.25;;;8.70;82.10;;;;;;5049424;28;20040;-66
2022/04/07 08:28:37;;;;;;;11.32;3.80;;;8.80;82.10;;;;;;5049693;28;20087;-66
2022/04/07 08:31:03;;;;;;;9.25;4.45;;;8.70;81.90;;;;;;5049136;28;20115;-67
2022/04/07 08:33:29;;;;;;;10.27;4.60;;;8.70;81.70;;;;;;5049073;28;20041;-67
2022/04/07 08:35:54;;;;;;;13.10;4.82;;;8.80;82.30;;;;;;5048401;28;20037;-68
2022/04/07 08:38:20;;;;;;;12.00;4.22;;;8.90;82.10;;;;;;5049896;28;20575;-67
2022/04/07 08:40:50;;;;;;;11.88;4.15;;;8.90;81.80;;;;;;5048541;28;20072;-67
2022/04/07 08:43:16;;;;;;;13.02;4.68;;;8.90;81.90;;;;;;5048580;28;20144;-66
2022/04/07 08:45:43;;;;;;;8.80;4.03;;;9.00;81.70;;;;;;5049454;28;20037;-66
2022/04/07 08:48:11;;;;;;;12.30;4.90;;;9.00;81.70;;;;;;5048556;28;20084;-66
2022/04/07 08:50:40;;;;;;;11.25;4.40;;;9.10;81.90;;;;;;5047917;28;20052;-67
2022/04/07 08:53:06;;;;;;;14.18;5.03;;;9.20;81.90;;;;;;5047828;28;20040;-66
2022/04/07 08:55:32;;;;;;;12.93;4.80;;;9.30;81.40;;;;;;5048123;28;20064;-67
2022/04/07 08:57:58;;;;;;;10.60;4.15;;;9.30;81.20;;;;;;5049028;28;20048;-67
2022/04/07 09:00:24;;;;;;;14.98;4.70;;;9.40;81.30;;;;;;5049407;28;20067;-66
2022/04/07 09:02:52;;;;;;;9.90;3.50;;;9.50;80.10;;;;;;5048304;28;20395;-66
2022/04/07 09:05:23;;;;;;;13.65;3.47;;;9.60;79.30;;;;;;5047649;28;20438;-67
2022/04/07 09:07:54;;;;;;;10.05;3.45;;;9.60;79.80;;;;;;5030592;28;20063;-67
2022/04/07 09:10:22;;;;;;;11.38;3.40;;;9.70;78.60;;;;;;5045677;28;20049;-66
2022/04/07 09:12:48;;;;;;;16.65;4.35;;;9.70;78.60;;;;;;5047382;28;20563;-67
2022/04/07 09:15:15;;;;;;;21.25;5.20;;;9.60;78.80;;;;;;5048194;28;20033;-67
2022/04/07 09:17:54;;;;;;;13.73;3.88;;;9.60;78.30;;;;;;5047596;28;20039;-67
2022/04/07 09:20:20;;;;;;;17.67;4.07;;;9.60;78.70;;;;;;5021880;28;20045;-68
2022/04/07 09:22:57;;;;;;;15.27;3.30;;;9.60;78.40;;;;;;5030090;28;20054;-67
2022/04/07 09:25:24;;;;;;;17.95;3.63;;;9.60;78.00;;;;;;5046403;28;20080;-67
2022/04/07 09:27:50;;;;;;;13.57;3.72;;;9.50;78.10;;;;;;5046183;28;20808;-66
2022/04/07 09:30:16;;;;;;;16.58;3.45;;;9.40;78.30;;;;;;5046600;28;20055;-66
2022/04/07 09:32:43;;;;;;;13.07;3.92;;;9.30;78.70;;;;;;5047024;28;20042;-66
2022/04/07 09:35:11;;;;;;;12.32;3.10;;;9.30;77.00;;;;;;5046935;28;20045;-67
2022/04/07 09:37:39;;;;;;;12.23;3.50;;;9.30;74.30;;;;;;5046427;28;20608;-66
2022/04/07 09:40:05;;;;;;;9.20;3.15;;;9.40;74.30;;;;;;5047385;28;20146;-66
2022/04/07 09:42:33;;;;;;;11.27;2.83;;;9.50;74.90;;;;;;5044454;28;20140;-66
2022/04/07 09:45:00;;;;;;;17.05;4.95;;;9.50;74.30;;;;;;5046079;28;20446;-67
2022/04/07 09:47:39;;;;;;;11.23;2.08;;;9.60;74.80;;;;;;5048182;28;20044;-66
2022/04/07 09:50:10;;;;;;;10.98;3.70;;;9.60;73.30;;;;;;5047591;28;20414;-66
2022/04/07 09:52:40;;;;;;;10.73;3.47;;;9.20;77.20;;;;;;5043965;28;20549;-67
2022/04/07 09:55:08;;;;;;;21.70;4.72;;;8.70;78.30;;;;;;5046849;28;20413;-65
2022/04/07 09:57:34;;;;;;;18.35;5.10;;;8.60;79.30;;;;;;5046710;28;20057;-65
2022/04/07 10:00:05;;;;;;;18.95;5.15;;;8.40;80.90;;;;;;5047050;28;20402;-65
2022/04/07 10:02:31;;;;;;;12.93;4.53;;;8.40;82.40;;;;;;5046999;28;20539;-65
2022/04/07 10:04:59;;;;;;;19.02;4.47;;;8.50;82.30;;;;;;5046629;28;20052;-63
2022/04/07 10:07:26;;;;;;;25.42;5.05;;;8.60;80.70;;;;;;5047260;28;20053;-66
2022/04/07 10:09:52;;;;;;;11.65;3.85;;;8.70;80.50;;;;;;5045978;28;20033;-65
2022/04/07 10:12:19;;;;;;;19.05;4.65;;;8.70;79.90;;;;;;5046799;28;20107;-65
2022/04/07 10:14:44;;;;;;;15.18;4.90;;;8.80;79.60;;;;;;5043463;28;20497;-66
2022/04/07 10:17:13;;;;;;;21.52;5.30;;;8.80;80.10;;;;;;5047878;28;20044;-65
2022/04/07 10:19:51;;;;;;;18.73;4.10;;;8.70;79.70;;;;;;5047105;28;20041;-65
2022/04/07 10:22:56;;;;;;;21.40;5.30;;;8.70;79.70;;;;;;5048068;28;20529;-66
2022/04/07 10:25:24;;;;;;;17.45;4.22;;;8.80;78.70;;;;;;5051988;28;20080;-66
2022/04/07 10:27:52;;;;;;;14.27;5.53;;;8.80;78.10;;;;;;5051582;28;20051;-66
2022/04/07 10:30:18;;;;;;;17.85;5.05;;;8.80;78.70;;;;;;5052193;28;20044;-65
2022/04/07 10:32:53;;;;;;;15.27;4.63;;;8.80;79.00;;;;;;5032252;28;20127;-65
2022/04/07 10:35:32;;;;;;;17.55;4.85;;;8.80;78.10;;;;;;5032103;28;20049;-65
2022/04/07 10:37:59;;;;;;;20.10;4.05;;;8.90;77.90;;;;;;5031454;28;20093;-67
2022/04/07 10:40:38;;;;;;;23.27;4.72;;;8.90;77.90;;;;;;5044812;28;20048;-66
2022/04/07 10:43:05;;;;;;;17.75;4.20;;;9.00;77.40;;;;;;5051755;28;20095;-65
2022/04/07 10:45:34;;;;;;;14.82;4.25;;;9.00;76.40;;;;;;5033933;28;20048;-67
2022/04/07 10:48:20;;;;;;;23.58;4.95;;;9.10;77.10;;;;;;5065292;28;20033;-66
2022/04/07 10:51:01;;;;;;;19.88;4.53;;;9.10;76.70;;;;;;5051326;28;20569;-65
2022/04/07 10:53:52;;;;;;;15.23;4.30;;;9.10;77.50;;;;;;5051461;28;20045;-64
2022/04/07 10:56:34;;;;;;;19.92;5.68;;;9.20;77.30;;;;;;5051258;28;20138;-66
2022/04/07 10:59:21;;;;;;;19.63;5.57;;;9.30;78.10;;;;;;5050959;28;20120;-66
2022/04/07 11:01:52;;;;;;;18.02;5.28;;;9.40;77.60;;;;;;5051098;28;20048;-65
2022/04/07 11:04:18;;;;;;;21.50;4.13;;;9.50;77.60;;;;;;5050969;28;20111;-66
2022/04/07 11:07:13;;;;;;;9.52;3.13;;;9.50;75.80;;;;;;5046769;28;20046;-65
2022/04/07 11:09:57;;;;;;;17.85;3.28;;;9.50;75.10;;;;;;5042541;28;20048;-66
2022/04/07 11:12:34;;;;;;;13.70;3.50;;;9.60;75.40;;;;;;5042007;28;20151;-66
2022/04/07 11:15:02;;;;;;;15.02;3.63;;;9.60;74.70;;;;;;5037284;28;20044;-67
2022/04/07 11:17:35;;;;;;;16.50;4.13;;;9.70;74.80;;;;;;5028476;28;20045;-66
2022/04/07 11:20:18;;;;;;;15.00;3.83;;;9.70;75.10;;;;;;5053861;28;20033;-65
2022/04/07 11:22:57;;;;;;;14.00;3.47;;;9.80;73.70;;;;;;5050124;28;20045;-65
2022/04/07 11:25:32;;;;;;;18.73;3.35;;;9.70;72.20;;;;;;5058260;28;20497;-65
2022/04/07 11:28:10;;;;;;;22.10;4.68;;;9.90;73.20;;;;;;5049895;28;20587;-65
2022/04/07 11:30:37;;;;;;;14.43;3.95;;;9.90;73.00;;;;;;5050616;28;20053;-65
2022/04/07 11:33:14;;;;;;;13.90;3.95;;;9.90;72.70;;;;;;5050603;28;20122;-66
2022/04/07 11:35:39;;;;;;;19.13;4.18;;;10.00;72.30;;;;;;5048699;28;20119;-65
2022/04/07 11:38:05;;;;;;;19.08;3.67;;;10.10;73.10;;;;;;5049848;28;20041;-64
2022/04/07 11:40:31;;;;;;;21.52;3.85;;;10.20;73.00;;;;;;5050338;28;20051;-64
2022/04/07 11:42:58;;;;;;;19.17;4.30;;;10.40;71.80;;;;;;5050446;28;20037;-65
2022/04/07 11:45:31;;;;;;;17.13;3.95;;;10.40;70.40;;;;;;5050267;28;20560;-66
2022/04/07 11:47:56;;;;;;;16.60;3.03;;;10.50;70.80;;;;;;5049661;28;20053;-67
2022/04/07 11:50:22;;;;;;;12.40;2.97;;;10.60;70.60;;;;;;5049898;28;20068;-65
2022/04/07 11:52:50;;;;;;;11.43;3.17;;;10.60;69.50;;;;;;5050196;28;20490;-65
2022/04/07 11:55:24;;;;;;;17.10;3.40;;;10.80;70.20;;;;;;5049912;28;20442;-65
2022/04/07 11:57:58;;;;;;;19.60;3.13;;;10.80;69.90;;;;;;5050522;28;20040;-66
2022/04/07 12:00:31;;;;;;;20.58;5.40;;;10.60;69.30;;;;;;5046136;28;20052;-66
2022/04/07 12:02:58;;;;;;;15.27;3.50;;;10.30;71.90;;;;;;5049876;28;20147;-66
2022/04/07 12:05:24;;;;;;;10.40;3.67;;;9.90;72.80;;;;;;5053481;28;20052;-67
2022/04/07 12:07:49;;;;;;;6.78;3.30;;;9.00;77.50;;;;;;5051796;28;20049;-66
2022/04/07 12:10:15;;;;;;;7.20;3.40;;;8.00;78.90;;;;;;5050127;28;20106;-66
2022/04/07 12:12:42;;;;;;;7.43;4.15;;;7.60;79.80;;;;;;5052946;28;20098;-66
2022/04/07 12:15:11;;;;;;;11.82;5.82;;;7.60;80.90;;;;;;5053995;28;20036;-66
2022/04/07 12:18:00;;;;;;;17.90;6.53;;;7.80;83.30;;;;;;5051625;28;20065;-67
2022/04/07 12:20:25;;;;;;;16.65;6.88;;;8.20;83.20;;;;;;5050270;28;20131;-66
2022/04/07 12:23:13;;;;;;;16.55;5.28;;;8.40;82.80;;;;;;5050611;28;20135;-66
2022/04/07 12:25:41;;;;;;;21.60;5.88;;;8.80;81.30;;;;;;5051003;28;20041;-67
2022/04/07 12:28:12;;;;;;;13.55;4.15;;;9.20;81.00;;;;;;5053344;28;20033;-66
2022/04/07 12:30:42;;;;;;;10.95;3.00;;;9.20;78.30;;;;;;5053869;28;20044;-67
2022/04/07 12:33:08;;;;;;;12.38;3.97;;;9.20;77.20;;;;;;5048863;28;20045;-65
2022/04/07 12:35:45;;;;;;;13.85;3.47;;;8.70;76.90;;;;;;5049350;28;20070;-66
2022/04/07 12:38:11;;;;;;;10.43;3.67;;;8.40;78.10;;;;;;5048488;28;20052;-66
2022/04/07 12:40:38;;;;;;;15.65;4.05;;;8.10;79.10;;;;;;5051124;28;20128;-66
2022/04/07 12:43:04;;;;;;;17.52;4.57;;;8.30;79.60;;;;;;5053385;28;20098;-66
2022/04/07 12:45:30;;;;;;;14.38;4.50;;;8.60;79.50;;;;;;5050411;28;20402;-66
2022/04/07 12:48:11;;;;;;;19.48;5.53;;;8.80;80.00;;;;;;5050152;28;20041;-66